sensor_id;sensor_type;location;lat;lon;timestamp;pressure;altitude;pressure_sealevel;temperature;humidity
10202;BME280;5143;42.584;23.164;2023-03-15T00:01:53;91542.16;;;2.00;100.00
10202;BME280;5143;42.584;23.164;2023-03-15T00:04:20;91538.25;;;2.01;100.00
10202;BME280;5143;42.584;23.164;2023-03-15T00:06:49;91534.78;;;2.09;100.00
10202;BME280;5143;42.584;23.164;2023-03-15T00:09:16;91535.81;;;2.12;100.00
10202;BME280;5143;42.584;23.164;2023-03-15T00:11:44;91540.75;;;2.22;100.00
10202;BME280;5143;42.584;23.164;2023-03-15T00:14:11;91535.50;;;2.19;100.00
10202;BME280;5143;42.584;23.164;2023-03-15T00:16:37;91541.16;;;2.30;100.00
10202;BME280;5143;42.584;23.164;2023-03-15T00:19:04;91545.56;;;2.42;100.00
10202;BME280;5143;42.584;23.164;2023-03-15T00:21:31;91549.72;;;2.52;100.00
10202;BME280;5143;42.584;23.164;2023-03-15T00:23:58;91549.38;;;2.59;100.00
10202;BME280;5143;42.584;23.164;2023-03-15T00:26:25;91549.66;;;2.61;100.00
10202;BME280;5143;42.584;23.164;2023-03-15T00:28:53;91549.34;;;2.68;100.00
10202;BME280;5143;42.584;23.164;2023-03-15T00:31:22;91538.41;;;2.72;100.00
10202;BME280;5143;42.584;23.164;2023-03-15T00:33:50;91529.84;;;2.73;100.00
10202;BME280;5143;42.584;23.164;2023-03-15T00:36:18;91528.66;;;2.74;100.00
10202;BME280;5143;42.584;23.164;2023-03-15T00:38:48;91522.53;;;2.74;100.00
10202;BME280;5143;42.584;23.164;2023-03-15T00:41:17;91520.50;;;2.83;100.00
10202;BME280;5143;42.584;23.164;2023-03-15T00:43:46;91521.97;;;2.93;100.00
10202;BME280;5143;42.584;23.164;2023-03-15T00:46:15;91517.97;;;3.04;100.00
10202;BME280;5143;42.584;23.164;2023-03-15T00:48:42;91508.69;;;3.05;100.00
10202;BME280;5143;42.584;23.164;2023-03-15T00:51:10;91511.69;;;3.07;100.00
10202;BME280;5143;42.584;23.164;2023-03-15T00:53:39;91500.03;;;3.01;100.00
10202;BME280;5143;42.584;23.164;2023-03-15T00:56:08;91497.56;;;3.12;100.00
10202;BME280;5143;42.584;23.164;2023-03-15T00:58:36;91486.03;;;3.11;100.00
10202;BME280;5143;42.584;23.164;2023-03-15T01:01:05;91494.03;;;3.20;100.00
10202;BME280;5143;42.584;23.164;2023-03-15T01:03:34;91491.50;;;3.17;100.00
10202;BME280;5143;42.584;23.164;2023-03-15T01:06:04;91492.16;;;3.12;100.00
10202;BME280;5143;42.584;23.164;2023-03-15T01:08:31;91488.81;;;3.17;100.00
10202;BME280;5143;42.584;23.164;2023-03-15T01:11:00;91492.19;;;3.26;100.00
10202;BME280;5143;42.584;23.164;2023-03-15T01:13:27;91496.56;;;3.24;100.00
10202;BME280;5143;42.584;23.164;2023-03-15T01:15:54;91488.28;;;3.27;100.00
10202;BME280;5143;42.584;23.164;2023-03-15T01:18:21;91477.50;;;3.27;100.00
10202;BME280;5143;42.584;23.164;2023-03-15T01:20:49;91488.84;;;3.31;100.00
10202;BME280;5143;42.584;23.164;2023-03-15T01:23:16;91475.91;;;3.35;100.00
10202;BME280;5143;42.584;23.164;2023-03-15T01:25:42;91472.31;;;3.38;100.00
10202;BME280;5143;42.584;23.164;2023-03-15T01:28:09;91464.31;;;3.44;100.00
10202;BME280;5143;42.584;23.164;2023-03-15T01:30:36;91459.00;;;3.49;100.00
10202;BME280;5143;42.584;23.164;2023-03-15T01:33:03;91460.97;;;3.49;100.00
10202;BME280;5143;42.584;23.164;2023-03-15T01:35:30;91468.78;;;3.47;100.00
10202;BME280;5143;42.584;23.164;2023-03-15T01:37:58;91471.75;;;3.49;100.00
10202;BME280;5143;42.584;23.164;2023-03-15T01:40:25;91465.13;;;3.35;100.00
10202;BME280;5143;42.584;23.164;2023-03-15T01:42:53;91467.47;;;3.28;100.00
10202;BME280;5143;42.584;23.164;2023-03-15T01:45:56;91455.19;;;3.27;100.00
10202;BME280;5143;42.584;23.164;2023-03-15T01:48:29;91460.59;;;3.27;100.00
10202;BME280;5143;42.584;23.164;2023-03-15T01:51:00;91442.06;;;3.20;100.00
10202;BME280;5143;42.584;23.164;2023-03-15T01:53:31;91448.31;;;3.26;100.00
10202;BME280;5143;42.584;23.164;2023-03-15T01:55:58;91444.31;;;3.36;100.00
10202;BME280;5143;42.584;23.164;2023-03-15T01:58:27;91434.53;;;3.38;100.00
10202;BME280;5143;42.584;23.164;2023-03-15T02:00:54;91425.63;;;3.32;100.00
10202;BME280;5143;42.584;23.164;2023-03-15T02:03:24;91427.09;;;3.33;100.00
10202;BME280;5143;42.584;23.164;2023-03-15T02:05:56;91424.50;;;3.39;100.00
10202;BME280;5143;42.584;23.164;2023-03-15T02:08:27;91421.25;;;3.35;100.00
10202;BME280;5143;42.584;23.164;2023-03-15T02:11:00;91414.47;;;3.39;100.00
10202;BME280;5143;42.584;23.164;2023-03-15T02:13:30;91407.78;;;3.35;100.00
10202;BME280;5143;42.584;23.164;2023-03-15T02:15:58;91408.72;;;3.32;100.00
10202;BME280;5143;42.584;23.164;2023-03-15T02:18:25;91400.69;;;3.23;100.00
10202;BME280;5143;42.584;23.164;2023-03-15T02:20:57;91403.50;;;3.28;100.00
10202;BME280;5143;42.584;23.164;2023-03-15T02:23:28;91393.44;;;3.29;100.00
10202;BME280;5143;42.584;23.164;2023-03-15T02:26:06;91399.03;;;3.25;100.00
10202;BME280;5143;42.584;23.164;2023-03-15T02:28:38;91398.28;;;3.25;100.00
10202;BME280;5143;42.584;23.164;2023-03-15T02:31:05;91397.63;;;3.30;100.00
10202;BME280;5143;42.584;23.164;2023-03-15T02:33:34;91395.88;;;3.27;100.00
10202;BME280;5143;42.584;23.164;2023-03-15T02:36:08;91394.38;;;3.26;100.00
10202;BME280;5143;42.584;23.164;2023-03-15T02:38:36;91394.19;;;3.15;100.00
10202;BME280;5143;42.584;23.164;2023-03-15T02:41:03;91397.34;;;3.13;100.00
10202;BME280;5143;42.584;23.164;2023-03-15T02:43:31;91399.97;;;3.08;100.00
10202;BME280;5143;42.584;23.164;2023-03-15T02:46:00;91393.13;;;2.97;100.00
10202;BME280;5143;42.584;23.164;2023-03-15T02:48:28;91378.53;;;2.89;100.00
10202;BME280;5143;42.584;23.164;2023-03-15T02:50:56;91381.88;;;2.84;100.00
10202;BME280;5143;42.584;23.164;2023-03-15T02:53:22;91379.94;;;2.85;100.00
10202;BME280;5143;42.584;23.164;2023-03-15T02:55:50;91372.59;;;2.85;100.00
10202;BME280;5143;42.584;23.164;2023-03-15T02:58:17;91372.03;;;2.81;100.00
10202;BME280;5143;42.584;23.164;2023-03-15T03:00:43;91348.44;;;2.76;100.00
10202;BME280;5143;42.584;23.164;2023-03-15T03:03:12;91359.31;;;2.82;100.00
10202;BME280;5143;42.584;23.164;2023-03-15T03:05:38;91347.88;;;2.87;100.00
10202;BME280;5143;42.584;23.164;2023-03-15T03:08:05;91348.91;;;2.89;100.00
10202;BME280;5143;42.584;23.164;2023-03-15T03:10:32;91338.97;;;2.95;100.00
10202;BME280;5143;42.584;23.164;2023-03-15T03:12:58;91333.38;;;2.84;100.00
10202;BME280;5143;42.584;23.164;2023-03-15T03:15:25;91330.69;;;2.84;100.00
10202;BME280;5143;42.584;23.164;2023-03-15T03:17:52;91331.16;;;2.97;100.00
10202;BME280;5143;42.584;23.164;2023-03-15T03:20:20;91343.69;;;3.01;100.00
10202;BME280;5143;42.584;23.164;2023-03-15T03:22:47;91337.56;;;3.00;100.00
10202;BME280;5143;42.584;23.164;2023-03-15T03:25:13;91331.25;;;3.03;100.00
10202;BME280;5143;42.584;23.164;2023-03-15T03:27:40;91336.53;;;2.97;100.00
10202;BME280;5143;42.584;23.164;2023-03-15T03:30:10;91341.00;;;3.01;100.00
10202;BME280;5143;42.584;23.164;2023-03-15T03:32:38;91342.13;;;3.09;100.00
10202;BME280;5143;42.584;23.164;2023-03-15T03:35:06;91342.13;;;3.09;100.00
10202;BME280;5143;42.584;23.164;2023-03-15T03:37:34;91339.34;;;3.18;100.00
10202;BME280;5143;42.584;23.164;2023-03-15T03:40:01;91337.84;;;3.17;100.00
10202;BME280;5143;42.584;23.164;2023-03-15T03:42:32;91336.91;;;3.20;100.00
10202;BME280;5143;42.584;23.164;2023-03-15T03:44:59;91327.34;;;3.19;100.00
10202;BME280;5143;42.584;23.164;2023-03-15T03:47:25;91308.94;;;3.17;100.00
10202;BME280;5143;42.584;23.164;2023-03-15T03:49:52;91313.84;;;3.33;100.00
10202;BME280;5143;42.584;23.164;2023-03-15T03:52:19;91304.34;;;3.38;100.00
10202;BME280;5143;42.584;23.164;2023-03-15T03:54:47;91298.00;;;3.41;100.00
10202;BME280;5143;42.584;23.164;2023-03-15T03:57:14;91299.31;;;3.45;100.00
10202;BME280;5143;42.584;23.164;2023-03-15T03:59:41;91298.59;;;3.45;100.00
10202;BME280;5143;42.584;23.164;2023-03-15T04:02:07;91297.91;;;3.50;100.00
10202;BME280;5143;42.584;23.164;2023-03-15T04:04:34;91319.03;;;3.51;100.00
10202;BME280;5143;42.584;23.164;2023-03-15T04:07:01;91314.09;;;3.50;100.00
10202;BME280;5143;42.584;23.164;2023-03-15T04:09:28;91313.47;;;3.40;100.00
10202;BME280;5143;42.584;23.164;2023-03-15T04:11:56;91309.47;;;3.36;100.00
10202;BME280;5143;42.584;23.164;2023-03-15T04:14:23;91311.50;;;3.41;100.00
10202;BME280;5143;42.584;23.164;2023-03-15T04:16:50;91310.22;;;3.36;100.00
10202;BME280;5143;42.584;23.164;2023-03-15T04:19:19;91309.56;;;3.41;100.00
10202;BME280;5143;42.584;23.164;2023-03-15T04:21:45;91297.84;;;3.44;100.00
10202;BME280;5143;42.584;23.164;2023-03-15T04:24:12;91306.94;;;3.47;100.00
10202;BME280;5143;42.584;23.164;2023-03-15T04:26:39;91310.00;;;3.54;100.00
10202;BME280;5143;42.584;23.164;2023-03-15T04:29:09;91313.06;;;3.62;100.00
10202;BME280;5143;42.584;23.164;2023-03-15T04:31:36;91316.44;;;3.57;100.00
10202;BME280;5143;42.584;23.164;2023-03-15T04:34:03;91313.34;;;3.49;100.00
10202;BME280;5143;42.584;23.164;2023-03-15T04:36:30;91326.00;;;3.58;100.00
10202;BME280;5143;42.584;23.164;2023-03-15T04:38:57;91320.06;;;3.54;100.00
10202;BME280;5143;42.584;23.164;2023-03-15T04:41:31;91311.03;;;3.57;100.00
10202;BME280;5143;42.584;23.164;2023-03-15T04:43:59;91307.59;;;3.56;100.00
10202;BME280;5143;42.584;23.164;2023-03-15T04:46:27;91311.66;;;3.67;100.00
10202;BME280;5143;42.584;23.164;2023-03-15T04:48:53;91306.31;;;3.72;100.00
10202;BME280;5143;42.584;23.164;2023-03-15T04:51:20;91296.22;;;3.67;100.00
10202;BME280;5143;42.584;23.164;2023-03-15T04:53:47;91296.47;;;3.69;100.00
10202;BME280;5143;42.584;23.164;2023-03-15T04:56:13;91298.03;;;3.76;100.00
10202;BME280;5143;42.584;23.164;2023-03-15T04:58:40;91304.44;;;3.78;100.00
10202;BME280;5143;42.584;23.164;2023-03-15T05:01:07;91302.59;;;3.84;100.00
10202;BME280;5143;42.584;23.164;2023-03-15T05:03:35;91305.13;;;3.93;100.00
10202;BME280;5143;42.584;23.164;2023-03-15T05:06:02;91307.16;;;3.98;100.00
10202;BME280;5143;42.584;23.164;2023-03-15T05:08:32;91295.97;;;4.05;100.00
10202;BME280;5143;42.584;23.164;2023-03-15T05:10:59;91301.63;;;4.07;100.00
10202;BME280;5143;42.584;23.164;2023-03-15T05:13:26;91301.44;;;4.11;100.00
10202;BME280;5143;42.584;23.164;2023-03-15T05:15:52;91296.31;;;4.13;100.00
10202;BME280;5143;42.584;23.164;2023-03-15T05:18:19;91301.72;;;4.13;100.00
10202;BME280;5143;42.584;23.164;2023-03-15T05:20:47;91303.59;;;4.27;100.00
10202;BME280;5143;42.584;23.164;2023-03-15T05:23:14;91308.94;;;4.42;100.00
10202;BME280;5143;42.584;23.164;2023-03-15T05:25:41;91302.91;;;4.52;100.00
10202;BME280;5143;42.584;23.164;2023-03-15T05:28:08;91295.13;;;4.60;100.00
10202;BME280;5143;42.584;23.164;2023-03-15T05:30:35;91290.69;;;4.57;100.00
10202;BME280;5143;42.584;23.164;2023-03-15T05:33:02;91284.75;;;4.78;100.00
10202;BME280;5143;42.584;23.164;2023-03-15T05:35:29;91294.56;;;5.02;100.00
10202;BME280;5143;42.584;23.164;2023-03-15T05:37:57;91296.75;;;5.29;100.00
10202;BME280;5143;42.584;23.164;2023-03-15T05:40:24;91295.22;;;5.54;100.00
10202;BME280;5143;42.584;23.164;2023-03-15T05:42:54;91280.84;;;5.73;100.00
10202;BME280;5143;42.584;23.164;2023-03-15T05:45:21;91273.63;;;5.96;100.00
10202;BME280;5143;42.584;23.164;2023-03-15T05:47:48;91253.75;;;6.16;100.00
10202;BME280;5143;42.584;23.164;2023-03-15T05:50:15;91263.50;;;6.44;100.00
10202;BME280;5143;42.584;23.164;2023-03-15T05:52:42;91274.94;;;6.82;100.00
10202;BME280;5143;42.584;23.164;2023-03-15T05:55:10;91270.56;;;7.23;100.00
10202;BME280;5143;42.584;23.164;2023-03-15T05:57:36;91277.72;;;7.43;100.00
10202;BME280;5143;42.584;23.164;2023-03-15T06:00:04;91279.94;;;7.66;99.25
10202;BME280;5143;42.584;23.164;2023-03-15T06:02:31;91288.81;;;7.72;95.84
10202;BME280;5143;42.584;23.164;2023-03-15T06:04:58;91293.00;;;8.01;91.75
10202;BME280;5143;42.584;23.164;2023-03-15T06:07:25;91290.50;;;8.14;89.67
10202;BME280;5143;42.584;23.164;2023-03-15T06:09:51;91280.81;;;8.30;77.32
10202;BME280;5143;42.584;23.164;2023-03-15T06:12:19;91286.19;;;8.52;73.50
10202;BME280;5143;42.584;23.164;2023-03-15T06:14:46;91293.56;;;8.63;71.06
10202;BME280;5143;42.584;23.164;2023-03-15T06:17:13;91294.34;;;8.52;68.30
10202;BME280;5143;42.584;23.164;2023-03-15T06:19:40;91291.66;;;8.41;67.49
10202;BME280;5143;42.584;23.164;2023-03-15T06:22:07;91292.97;;;8.12;69.39
10202;BME280;5143;42.584;23.164;2023-03-15T06:24:33;91275.91;;;8.28;68.62
10202;BME280;5143;42.584;23.164;2023-03-15T06:27:00;91282.47;;;8.61;66.50
10202;BME280;5143;42.584;23.164;2023-03-15T06:29:29;91285.22;;;9.02;64.78
10202;BME280;5143;42.584;23.164;2023-03-15T06:31:55;91299.72;;;9.21;63.01
10202;BME280;5143;42.584;23.164;2023-03-15T06:34:22;91285.25;;;9.37;61.82
10202;BME280;5143;42.584;23.164;2023-03-15T06:36:49;91293.69;;;9.69;59.79
10202;BME280;5143;42.584;23.164;2023-03-15T06:39:17;91284.53;;;9.96;57.44
10202;BME280;5143;42.584;23.164;2023-03-15T06:41:44;91289.94;;;10.74;56.14
10202;BME280;5143;42.584;23.164;2023-03-15T06:44:11;91290.06;;;10.63;53.83
10202;BME280;5143;42.584;23.164;2023-03-15T06:46:39;91293.16;;;10.97;54.33
10202;BME280;5143;42.584;23.164;2023-03-15T06:49:06;91292.03;;;11.24;52.22
10202;BME280;5143;42.584;23.164;2023-03-15T06:51:32;91290.34;;;11.90;49.91
10202;BME280;5143;42.584;23.164;2023-03-15T06:53:59;91288.91;;;11.89;50.10
10202;BME280;5143;42.584;23.164;2023-03-15T06:56:26;91291.50;;;12.53;47.63
10202;BME280;5143;42.584;23.164;2023-03-15T06:58:53;91291.53;;;12.66;46.97
10202;BME280;5143;42.584;23.164;2023-03-15T07:01:20;91296.00;;;12.24;47.54
10202;BME280;5143;42.584;23.164;2023-03-15T07:03:48;91286.63;;;11.74;47.19
10202;BME280;5143;42.584;23.164;2023-03-15T07:06:14;91282.00;;;11.51;49.00
10202;BME280;5143;42.584;23.164;2023-03-15T07:08:41;91285.41;;;11.19;48.63
10202;BME280;5143;42.584;23.164;2023-03-15T07:11:08;91295.72;;;10.89;51.00
10202;BME280;5143;42.584;23.164;2023-03-15T07:13:35;91292.94;;;11.32;50.51
10202;BME280;5143;42.584;23.164;2023-03-15T07:16:02;91310.13;;;11.83;50.31
10202;BME280;5143;42.584;23.164;2023-03-15T07:18:29;91309.00;;;11.92;49.23
10202;BME280;5143;42.584;23.164;2023-03-15T07:21:00;91304.22;;;11.92;49.16
10202;BME280;5143;42.584;23.164;2023-03-15T07:23:27;91302.81;;;10.98;51.13
10202;BME280;5143;42.584;23.164;2023-03-15T07:25:54;91308.84;;;10.91;51.61
10202;BME280;5143;42.584;23.164;2023-03-15T07:28:22;91307.69;;;11.23;52.26
10202;BME280;5143;42.584;23.164;2023-03-15T07:30:53;91302.63;;;11.65;49.92
10202;BME280;5143;42.584;23.164;2023-03-15T07:33:21;91309.09;;;11.99;49.19
10202;BME280;5143;42.584;23.164;2023-03-15T07:35:48;91319.66;;;11.58;50.01
10202;BME280;5143;42.584;23.164;2023-03-15T07:38:16;91318.16;;;11.57;51.62
10202;BME280;5143;42.584;23.164;2023-03-15T07:40:43;91312.78;;;10.95;51.82
10202;BME280;5143;42.584;23.164;2023-03-15T07:43:10;91311.91;;;10.63;52.63
10202;BME280;5143;42.584;23.164;2023-03-15T07:45:36;91318.06;;;10.45;53.88
10202;BME280;5143;42.584;23.164;2023-03-15T07:48:03;91325.94;;;10.73;53.64
10202;BME280;5143;42.584;23.164;2023-03-15T07:50:30;91314.16;;;10.83;53.60
10202;BME280;5143;42.584;23.164;2023-03-15T07:52:57;91314.56;;;10.68;54.30
10202;BME280;5143;42.584;23.164;2023-03-15T07:55:25;91299.28;;;10.36;55.39
10202;BME280;5143;42.584;23.164;2023-03-15T07:57:52;91307.19;;;10.39;55.65
10202;BME280;5143;42.584;23.164;2023-03-15T08:00:19;91301.16;;;9.92;55.82
10202;BME280;5143;42.584;23.164;2023-03-15T08:02:47;91310.44;;;10.08;56.63
10202;BME280;5143;42.584;23.164;2023-03-15T08:05:14;91307.78;;;10.32;55.44
10202;BME280;5143;42.584;23.164;2023-03-15T08:07:43;91305.31;;;10.29;55.03
10202;BME280;5143;42.584;23.164;2023-03-15T08:10:10;91307.16;;;10.21;55.30
10202;BME280;5143;42.584;23.164;2023-03-15T08:12:38;91311.34;;;10.70;54.41
10202;BME280;5143;42.584;23.164;2023-03-15T08:15:08;91303.72;;;10.63;55.60
10202;BME280;5143;42.584;23.164;2023-03-15T08:17:35;91308.41;;;10.87;54.46
10202;BME280;5143;42.584;23.164;2023-03-15T08:20:02;91321.59;;;10.83;54.29
10202;BME280;5143;42.584;23.164;2023-03-15T08:22:30;91320.97;;;10.77;53.49
10202;BME280;5143;42.584;23.164;2023-03-15T08:24:56;91321.47;;;10.27;54.79
10202;BME280;5143;42.584;23.164;2023-03-15T08:27:23;91323.72;;;9.93;55.91
10202;BME280;5143;42.584;23.164;2023-03-15T08:29:51;91328.34;;;10.03;56.35
10202;BME280;5143;42.584;23.164;2023-03-15T08:32:18;91328.28;;;10.09;55.74
10202;BME280;5143;42.584;23.164;2023-03-15T08:34:46;91320.72;;;9.96;56.13
10202;BME280;5143;42.584;23.164;2023-03-15T08:37:13;91321.81;;;10.18;55.49
10202;BME280;5143;42.584;23.164;2023-03-15T08:39:39;91316.50;;;9.95;54.55
10202;BME280;5143;42.584;23.164;2023-03-15T08:42:07;91321.31;;;10.14;54.79
10202;BME280;5143;42.584;23.164;2023-03-15T08:44:33;91322.94;;;10.76;54.06
10202;BME280;5143;42.584;23.164;2023-03-15T08:47:01;91319.66;;;10.59;53.01
10202;BME280;5143;42.584;23.164;2023-03-15T08:49:29;91305.50;;;10.36;52.95
10202;BME280;5143;42.584;23.164;2023-03-15T08:51:56;91318.94;;;10.77;53.14
10202;BME280;5143;42.584;23.164;2023-03-15T08:54:23;91313.28;;;10.51;52.19
10202;BME280;5143;42.584;23.164;2023-03-15T08:56:49;91311.44;;;10.11;52.35
10202;BME280;5143;42.584;23.164;2023-03-15T08:59:16;91314.75;;;9.98;51.70
10202;BME280;5143;42.584;23.164;2023-03-15T09:01:43;91311.69;;;10.37;52.14
10202;BME280;5143;42.584;23.164;2023-03-15T09:04:11;91301.63;;;10.50;50.94
10202;BME280;5143;42.584;23.164;2023-03-15T09:06:38;91305.28;;;10.77;49.86
10202;BME280;5143;42.584;23.164;2023-03-15T09:09:06;91302.59;;;10.53;48.74
10202;BME280;5143;42.584;23.164;2023-03-15T09:11:33;91306.75;;;10.05;48.30
10202;BME280;5143;42.584;23.164;2023-03-15T09:14:00;91298.44;;;9.92;50.05
10202;BME280;5143;42.584;23.164;2023-03-15T09:16:27;91293.78;;;9.87;50.78
10202;BME280;5143;42.584;23.164;2023-03-15T09:18:54;91297.00;;;9.56;50.68
10202;BME280;5143;42.584;23.164;2023-03-15T09:21:22;91307.41;;;9.58;50.48
10202;BME280;5143;42.584;23.164;2023-03-15T09:23:49;91295.47;;;9.31;51.58
10202;BME280;5143;42.584;23.164;2023-03-15T09:26:16;91289.34;;;9.55;51.46
10202;BME280;5143;42.584;23.164;2023-03-15T09:28:43;91284.31;;;9.64;51.43
10202;BME280;5143;42.584;23.164;2023-03-15T09:31:09;91292.88;;;9.79;50.61
10202;BME280;5143;42.584;23.164;2023-03-15T09:33:36;91282.88;;;10.17;48.96
10202;BME280;5143;42.584;23.164;2023-03-15T09:36:03;91272.13;;;10.25;48.94
10202;BME280;5143;42.584;23.164;2023-03-15T09:38:31;91266.31;;;10.58;48.70
10202;BME280;5143;42.584;23.164;2023-03-15T09:40:59;91271.06;;;10.57;49.56
10202;BME280;5143;42.584;23.164;2023-03-15T09:43:51;91265.47;;;10.44;49.39
10202;BME280;5143;42.584;23.164;2023-03-15T09:46:29;91263.00;;;10.46;49.18
10202;BME280;5143;42.584;23.164;2023-03-15T09:49:02;91269.59;;;10.75;48.79
10202;BME280;5143;42.584;23.164;2023-03-15T09:51:38;91283.03;;;11.10;48.92
10202;BME280;5143;42.584;23.164;2023-03-15T09:54:10;91279.91;;;11.57;49.11
10202;BME280;5143;42.584;23.164;2023-03-15T09:56:40;91288.34;;;11.21;49.82
10202;BME280;5143;42.584;23.164;2023-03-15T09:59:10;91288.28;;;10.90;50.54
10202;BME280;5143;42.584;23.164;2023-03-15T10:01:41;91284.31;;;11.28;50.06
10202;BME280;5143;42.584;23.164;2023-03-15T10:04:11;91295.88;;;11.53;49.61
10202;BME280;5143;42.584;23.164;2023-03-15T10:06:42;91303.84;;;12.01;49.84
10202;BME280;5143;42.584;23.164;2023-03-15T10:09:14;91299.06;;;12.20;48.39
10202;BME280;5143;42.584;23.164;2023-03-15T10:11:47;91303.19;;;12.40;48.11
10202;BME280;5143;42.584;23.164;2023-03-15T10:14:25;91302.28;;;12.06;48.88
10202;BME280;5143;42.584;23.164;2023-03-15T10:16:58;91298.03;;;12.36;49.26
10202;BME280;5143;42.584;23.164;2023-03-15T10:19:30;91288.38;;;12.49;49.53
10202;BME280;5143;42.584;23.164;2023-03-15T10:22:10;91291.31;;;12.51;48.16
10202;BME280;5143;42.584;23.164;2023-03-15T10:24:46;91293.09;;;12.35;48.82
10202;BME280;5143;42.584;23.164;2023-03-15T10:27:25;91288.28;;;11.96;49.03
10202;BME280;5143;42.584;23.164;2023-03-15T10:29:57;91292.78;;;11.62;49.13
10202;BME280;5143;42.584;23.164;2023-03-15T10:32:29;91292.78;;;10.87;50.39
10202;BME280;5143;42.584;23.164;2023-03-15T10:34:56;91298.94;;;10.69;50.33
10202;BME280;5143;42.584;23.164;2023-03-15T10:37:24;91290.56;;;10.19;49.87
10202;BME280;5143;42.584;23.164;2023-03-15T10:39:56;91295.63;;;9.74;50.78
10202;BME280;5143;42.584;23.164;2023-03-15T10:42:28;91286.72;;;9.73;51.62
10202;BME280;5143;42.584;23.164;2023-03-15T10:44:56;91296.47;;;9.63;53.32
10202;BME280;5143;42.584;23.164;2023-03-15T10:47:24;91276.63;;;9.33;55.70
10202;BME280;5143;42.584;23.164;2023-03-15T10:49:55;91299.22;;;9.22;57.80
10202;BME280;5143;42.584;23.164;2023-03-15T10:52:32;91282.75;;;9.04;59.71
10202;BME280;5143;42.584;23.164;2023-03-15T10:55:03;91307.28;;;8.98;60.51
10202;BME280;5143;42.584;23.164;2023-03-15T10:57:34;91301.97;;;8.70;63.19
10202;BME280;5143;42.584;23.164;2023-03-15T11:00:04;91287.91;;;8.61;65.68
10202;BME280;5143;42.584;23.164;2023-03-15T11:02:33;91284.97;;;8.53;65.83
10202;BME280;5143;42.584;23.164;2023-03-15T11:05:02;91283.81;;;8.32;66.56
10202;BME280;5143;42.584;23.164;2023-03-15T11:07:33;91281.56;;;8.25;66.00
10202;BME280;5143;42.584;23.164;2023-03-15T11:10:04;91278.91;;;8.03;68.69
10202;BME280;5143;42.584;23.164;2023-03-15T11:12:33;91274.22;;;8.03;69.97
10202;BME280;5143;42.584;23.164;2023-03-15T11:15:03;91289.72;;;8.25;67.86
10202;BME280;5143;42.584;23.164;2023-03-15T11:17:32;91292.69;;;8.27;66.86
10202;BME280;5143;42.584;23.164;2023-03-15T11:20:01;91284.44;;;8.55;64.04
10202;BME280;5143;42.584;23.164;2023-03-15T11:22:37;91288.59;;;8.72;63.32
10202;BME280;5143;42.584;23.164;2023-03-15T11:25:11;91289.88;;;8.60;64.47
10202;BME280;5143;42.584;23.164;2023-03-15T11:27:38;91277.22;;;8.68;66.63
10202;BME280;5143;42.584;23.164;2023-03-15T11:30:12;91285.34;;;8.79;65.32
10202;BME280;5143;42.584;23.164;2023-03-15T11:32:40;91271.22;;;8.86;64.38
10202;BME280;5143;42.584;23.164;2023-03-15T11:35:12;91267.13;;;8.63;61.92
10202;BME280;5143;42.584;23.164;2023-03-15T11:37:45;91267.78;;;8.80;62.16
10202;BME280;5143;42.584;23.164;2023-03-15T11:40:19;91275.66;;;8.89;64.07
10202;BME280;5143;42.584;23.164;2023-03-15T11:42:49;91268.47;;;8.92;63.47
10202;BME280;5143;42.584;23.164;2023-03-15T11:45:26;91245.22;;;8.91;64.60
10202;BME280;5143;42.584;23.164;2023-03-15T11:47:57;91250.84;;;8.99;66.47
10202;BME280;5143;42.584;23.164;2023-03-15T11:50:25;91253.63;;;8.87;64.03
10202;BME280;5143;42.584;23.164;2023-03-15T11:52:51;91240.84;;;8.77;64.44
10202;BME280;5143;42.584;23.164;2023-03-15T11:55:23;91250.22;;;8.81;65.45
10202;BME280;5143;42.584;23.164;2023-03-15T11:57:51;91241.34;;;8.75;64.80
10202;BME280;5143;42.584;23.164;2023-03-15T12:03:32;91245.94;;;8.92;62.49
10202;BME280;5143;42.584;23.164;2023-03-15T12:06:08;91246.19;;;8.94;63.52
10202;BME280;5143;42.584;23.164;2023-03-15T12:08:41;91245.59;;;8.65;63.02
10202;BME280;5143;42.584;23.164;2023-03-15T12:11:37;91241.41;;;8.64;62.37
10202;BME280;5143;42.584;23.164;2023-03-15T12:14:09;91244.75;;;8.87;62.61
10202;BME280;5143;42.584;23.164;2023-03-15T12:16:45;91240.31;;;8.84;62.25
10202;BME280;5143;42.584;23.164;2023-03-15T12:19:15;91248.84;;;9.05;61.77
10202;BME280;5143;42.584;23.164;2023-03-15T12:21:45;91239.22;;;9.04;59.26
10202;BME280;5143;42.584;23.164;2023-03-15T12:24:20;91241.88;;;9.09;59.96
10202;BME280;5143;42.584;23.164;2023-03-15T12:26:57;91232.84;;;8.90;60.95
10202;BME280;5143;42.584;23.164;2023-03-15T12:29:27;91227.94;;;8.83;60.88
10202;BME280;5143;42.584;23.164;2023-03-15T12:31:57;91241.56;;;8.77;59.45
10202;BME280;5143;42.584;23.164;2023-03-15T12:34:35;91237.72;;;8.62;60.30
10202;BME280;5143;42.584;23.164;2023-03-15T12:37:06;91246.38;;;8.55;60.70
10202;BME280;5143;42.584;23.164;2023-03-15T12:39:40;91239.72;;;8.50;60.12
10202;BME280;5143;42.584;23.164;2023-03-15T12:42:14;91232.13;;;8.38;59.47
10202;BME280;5143;42.584;23.164;2023-03-15T12:45:38;91250.16;;;8.35;60.03
10202;BME280;5143;42.584;23.164;2023-03-15T12:48:27;91249.50;;;8.12;60.96
10202;BME280;5143;42.584;23.164;2023-03-15T12:50:59;91235.63;;;8.10;60.83
10202;BME280;5143;42.584;23.164;2023-03-15T12:53:34;91244.50;;;8.22;60.06
10202;BME280;5143;42.584;23.164;2023-03-15T12:59:31;91237.09;;;8.22;59.39
10202;BME280;5143;42.584;23.164;2023-03-15T13:02:01;91242.03;;;8.24;59.01
10202;BME280;5143;42.584;23.164;2023-03-15T13:04:29;91241.31;;;8.18;59.72
10202;BME280;5143;42.584;23.164;2023-03-15T13:07:20;91227.75;;;8.07;60.19
10202;BME280;5143;42.584;23.164;2023-03-15T13:10:16;91228.00;;;8.09;61.67
10202;BME280;5143;42.584;23.164;2023-03-15T13:12:50;91227.19;;;8.36;62.11
10202;BME280;5143;42.584;23.164;2023-03-15T13:15:24;91230.88;;;8.39;64.63
10202;BME280;5143;42.584;23.164;2023-03-15T13:17:56;91235.34;;;8.36;67.11
10202;BME280;5143;42.584;23.164;2023-03-15T13:20:37;91228.75;;;8.09;69.12